Time;durP1;ratioP1;P1;durP2;ratioP2;P2;SDS_P1;SDS_P2;PMS_P1;PMS_P2;Temp;Humidity;BMP_temperature;BMP_pressure;BME280_temperature;BME280_humidity;BME280_pressure;Samples;Min_cycle;Max_cycle;Signal;HPM_P1;HPM_P2
2022/05/17 00:32:00;;;;;;;;;;;;;;;;;;5685352;22;13452222;-85
2022/05/17 00:34:47;;;;;;;;;;;;;;;;;;6209098;22;19963;-85
2022/05/17 00:37:15;;;;;;;;;;;;;;;;;;6220491;22;20776;-85
2022/05/17 00:40:11;;;;;;;;;;;;;;;;;;6243200;22;20339;-85
2022/05/17 00:42:42;;;;;;;;;;;;;;;;;;6246562;22;19947;-85
2022/05/17 00:45:29;;;;;;;;;;;;;;;;;;6204619;23;20427;-85
2022/05/17 00:48:26;;;;;;;;;;;;;;;;;;6242339;22;20233;-85
2022/05/17 00:53:58;;;;;;;;;;;;;;;;;;6204460;23;20342;-85
2022/05/17 00:59:17;;;;;;;;;;;;;;;;;;6141676;23;19920;-85
2022/05/17 01:02:06;;;;;;;;;;;;;;;;;;;;;
2022/05/17 01:04:41;;;;;;;;;;;;;;;;;;6109287;23;20110;-85
2022/05/17 01:07:15;;;;;;;;;;;;;;;;;;6083998;23;19932;-84
2022/05/17 01:18:47;;;;;;;;;;;;;;;;;;6058827;23;20344;-85
2022/05/17 01:21:34;;;;;;;;;;;;;;;;;;6028363;23;19952;-85
2022/05/17 01:24:18;;;;;;;;;;;;;;;;;;6052385;23;19921;-84
2022/05/17 01:27:02;;;;;;;;;;;;;;;;;;6037282;23;19973;-84
2022/05/17 01:29:49;;;;;;;;;;;;;;;;;;;;;
2022/05/17 01:32:39;;;;;;;;;;;;;;;;;;6085041;23;20597;-85
2022/05/17 02:53:28;;;;;;;;;;;;;;;;;;;;;
2022/05/17 03:05:00;;;;;;;;;;;;;;;;;;6079360;23;19948;-85
2022/05/17 03:07:53;;;;;;;;;;;;;;;;;;6132629;23;19928;-85
2022/05/17 03:10:34;;;;;;;;;;;;;;;;;;;;;
2022/05/17 03:13:09;;;;;;;;;;;;;;;;;;6106756;23;19952;-85
2022/05/17 03:15:57;;;;;;;;;;;;;;;;;;;;;
2022/05/17 03:18:54;;;;;;;;;;;;;;;;;;;;;
2022/05/17 03:21:30;;;;;;;;;;;;;;;;;;6104050;23;20454;-85
2022/05/17 03:24:01;;;;;;;;;;;;;;;;;;6086589;23;19967;-85
2022/05/17 03:26:32;;;;;;;;;;;;;;;;;;6081469;23;19924;-84
2022/05/17 03:29:26;;;;;;;;;;;;;;;;;;6143077;23;19939;-85
2022/05/17 03:32:14;;;;;;;;;;;;;;;;;;6149816;23;19920;-85
2022/05/17 03:34:49;;;;;;;;;;;;;;;;;;6142606;23;20042;-85
2022/05/17 03:37:24;;;;;;;;;;;;;;;;;;6142145;23;19920;-85
2022/05/17 03:39:58;;;;;;;;;;;;;;;;;;6167758;23;19928;-85
2022/05/17 03:42:26;;;;;;;;;;;;;;;;;;6154165;23;20096;-85
2022/05/17 03:44:55;;;;;;;;;;;;;;;;;;6223204;23;19945;-85
2022/05/17 03:47:21;;;;;;;;;;;;;;;;;;6220933;23;19961;-85
2022/05/17 03:49:47;;;;;;;;;;;;;;;;;;6225306;23;19923;-84
2022/05/17 03:52:16;;;;;;;;;;;;;;;;;;6221368;23;19962;-85
2022/05/17 03:54:42;;;;;;;;;;;;;;;;;;6222601;23;19915;-85
2022/05/17 03:57:11;;;;;;;;;;;;;;;;;;6224615;23;19955;-85
2022/05/17 03:59:37;;;;;;;;;;;;;;;;;;6222794;23;19994;-85
2022/05/17 04:02:03;;;;;;;;;;;;;;;;;;6219963;23;19995;-85
2022/05/17 04:04:29;;;;;;;;;;;;;;;;;;6220406;23;19919;-85
2022/05/17 04:06:55;;;;;;;;;;;;;;;;;;6233743;22;19957;-85
2022/05/17 04:09:21;;;;;;;;;;;;;;;;;;6225280;22;20232;-85
2022/05/17 04:11:47;;;;;;;;;;;;;;;;;;6255866;22;19919;-84
2022/05/17 04:14:13;;;;;;;;;;;;;;;;;;6254855;22;20407;-85
2022/05/17 04:16:39;;;;;;;;;;;;;;;;;;6230980;22;19923;-85
2022/05/17 04:19:05;;;;;;;;;;;;;;;;;;6228746;22;20403;-85
2022/05/17 04:21:31;;;;;;;;;;;;;;;;;;6202685;22;19951;-85
2022/05/17 04:23:57;;;;;;;;;;;;;;;;;;6203333;22;19966;-85
2022/05/17 04:26:23;;;;;;;;;;;;;;;;;;6227440;22;19920;-85
2022/05/17 04:28:49;;;;;;;;;;;;;;;;;;6229157;22;20344;-85
2022/05/17 04:31:15;;;;;;;;;;;;;;;;;;6253223;22;20324;-85
2022/05/17 04:33:42;;;;;;;;;;;;;;;;;;6230675;22;19962;-85
2022/05/17 04:36:08;;;;;;;;;;;;;;;;;;6205034;22;19919;-85
2022/05/17 04:38:34;;;;;;;;;;;;;;;;;;6202024;22;20252;-85
2022/05/17 04:41:00;;;;;;;;;;;;;;;;;;6230230;22;19957;-85
2022/05/17 04:43:26;;;;;;;;;;;;;;;;;;6201474;22;19927;-85
2022/05/17 04:45:54;;;;;;;;;;;;;;;;;;6229286;22;20332;-84
2022/05/17 04:48:20;;;;;;;;;;;;;;;;;;6226270;22;19994;-84
2022/05/17 04:50:46;;;;;;;;;;;;;;;;;;6230165;22;19950;-85
2022/05/17 04:53:12;;;;;;;;;;;;;;;;;;6199714;22;20222;-84
2022/05/17 04:55:38;;;;;;;;;;;;;;;;;;6228257;22;19915;-84
2022/05/17 04:58:04;;;;;;;;;;;;;;;;;;6228941;22;19932;-84
2022/05/17 05:00:30;;;;;;;;;;;;;;;;;;6226730;22;19959;-84
2022/05/17 05:02:56;;;;;;;;;;;;;;;;;;6227929;22;20415;-83
2022/05/17 05:05:22;;;;;;;;;;;;;;;;;;6203314;22;20295;-84
2022/05/17 05:07:48;;;;;;;;;;;;;;;;;;6260574;22;19966;-83
2022/05/17 05:10:14;;;;;;;;;;;;;;;;;;6223134;22;19919;-84
2022/05/17 05:12:40;;;;;;;;;;;;;;;;;;6230854;22;20095;-84
2022/05/17 05:15:06;;;;;;;;;;;;;;;;;;6235771;22;19919;-84
2022/05/17 05:17:32;;;;;;;;;;;;;;;;;;6208445;22;19998;-83
2022/05/17 05:19:58;;;;;;;;;;;;;;;;;;6235173;22;20325;-84
2022/05/17 05:22:24;;;;;;;;;;;;;;;;;;6234601;22;19915;-83
2022/05/17 05:24:50;;;;;;;;;;;;;;;;;;6237232;22;20048;-83
2022/05/17 05:27:16;;;;;;;;;;;;;;;;;;6234276;22;19930;-84
2022/05/17 05:29:42;;;;;;;;;;;;;;;;;;6238519;22;20004;-83
2022/05/17 05:32:11;;;;;;;;;;;;;;;;;;6212030;22;19919;-84
2022/05/17 05:34:36;;;;;;;;;;;;;;;;;;6211521;22;19922;-84
2022/05/17 05:37:03;;;;;;;;;;;;;;;;;;6239934;22;19927;-84
2022/05/17 05:39:29;;;;;;;;;;;;;;;;;;6237526;22;20953;-84
2022/05/17 05:41:55;;;;;;;;;;;;;;;;;;6215272;22;19919;-84
2022/05/17 05:44:21;;;;;;;;;;;;;;;;;;6237834;22;20328;-84
2022/05/17 05:46:47;;;;;;;;;;;;;;;;;;6215913;22;19915;-84
2022/05/17 05:49:13;;;;;;;;;;;;;;;;;;6238121;22;19915;-84
2022/05/17 05:51:40;;;;;;;;;;;;;;;;;;6212434;22;19930;-84
2022/05/17 05:54:06;;;;;;;;;;;;;;;;;;6239650;22;19994;-84
2022/05/17 05:56:32;;;;;;;;;;;;;;;;;;6235007;22;19954;-84
2022/05/17 05:58:58;;;;;;;;;;;;;;;;;;6213479;22;20225;-84
2022/05/17 06:01:24;;;;;;;;;;;;;;;;;;6234614;22;19922;-84
2022/05/17 06:03:50;;;;;;;;;;;;;;;;;;6240436;22;19919;-84
2022/05/17 06:06:16;;;;;;;;;;;;;;;;;;6239398;22;19946;-84
2022/05/17 06:08:42;;;;;;;;;;;;;;;;;;6241515;22;19919;-84
2022/05/17 06:11:09;;;;;;;;;;;;;;;;;;6242515;22;20037;-84
2022/05/17 06:13:36;;;;;;;;;;;;;;;;;;6242631;22;20350;-84
2022/05/17 06:16:02;;;;;;;;;;;;;;;;;;6242249;22;19944;-84
2022/05/17 06:18:28;;;;;;;;;;;;;;;;;;6214503;22;19930;-84
2022/05/17 06:20:54;;;;;;;;;;;;;;;;;;6244051;22;19922;-84
2022/05/17 06:23:20;;;;;;;;;;;;;;;;;;6241015;22;20287;-84
2022/05/17 06:25:46;;;;;;;;;;;;;;;;;;6242105;22;19919;-84
2022/05/17 06:28:12;;;;;;;;;;;;;;;;;;6239658;22;19925;-84
2022/05/17 06:30:38;;;;;;;;;;;;;;;;;;6241393;22;19919;-84
2022/05/17 06:33:04;;;;;;;;;;;;;;;;;;6242317;22;19922;-84
2022/05/17 06:35:30;;;;;;;;;;;;;;;;;;6239063;22;20206;-84
2022/05/17 06:37:56;;;;;;;;;;;;;;;;;;6242116;22;19923;-83
2022/05/17 06:40:22;;;;;;;;;;;;;;;;;;6240199;22;19915;-84
2022/05/17 06:42:47;;;;;;;;;;;;;;;;;;6243103;22;19919;-83
2022/05/17 06:45:13;;;;;;;;;;;;;;;;;;6214998;22;19969;-84
2022/05/17 06:47:40;;;;;;;;;;;;;;;;;;6241741;22;19919;-84
2022/05/17 06:50:06;;;;;;;;;;;;;;;;;;6242152;22;20247;-83
2022/05/17 06:52:32;;;;;;;;;;;;;;;;;;6239729;22;19972;-84
2022/05/17 06:54:58;;;;;;;;;;;;;;;;;;6241647;22;19986;-84
2022/05/17 06:57:23;;;;;;;;;;;;;;;;;;6213151;22;19923;-84
2022/05/17 06:59:49;;;;;;;;;;;;;;;;;;6217031;22;20320;-83
2022/05/17 07:02:15;;;;;;;;;;;;;;;;;;6239771;22;19989;-84
2022/05/17 07:04:41;;;;;;;;;;;;;;;;;;6243384;22;19965;-84
2022/05/17 07:07:10;;;;;;;;;;;;;;;;;;6242525;22;20340;-84
2022/05/17 07:09:36;;;;;;;;;;;;;;;;;;6216775;22;19973;-84
2022/05/17 07:14:47;;;;;;;;;;;;;;;;;;6242709;22;19926;-84
2022/05/17 07:17:13;;;;;;;;;;;;;;;;;;6239466;22;20243;-84
2022/05/17 07:19:39;;;;;;;;;;;;;;;;;;6242849;22;19984;-84
2022/05/17 07:22:05;;;;;;;;;;;;;;;;;;6241808;22;19915;-84
2022/05/17 07:24:31;;;;;;;;;;;;;;;;;;6215431;22;19919;-84
2022/05/17 07:26:57;;;;;;;;;;;;;;;;;;6215818;22;19937;-84
2022/05/17 07:29:23;;;;;;;;;;;;;;;;;;6240925;22;20343;-84
2022/05/17 07:31:49;;;;;;;;;;;;;;;;;;6241489;22;19919;-84
2022/05/17 07:34:15;;;;;;;;;;;;;;;;;;6239677;22;19971;-84
2022/05/17 07:36:41;;;;;;;;;;;;;;;;;;6242128;22;19982;-84
2022/05/17 07:39:10;;;;;;;;;;;;;;;;;;6269649;22;19915;-84
2022/05/17 07:41:36;;;;;;;;;;;;;;;;;;6243000;22;21122;-84
2022/05/17 07:44:02;;;;;;;;;;;;;;;;;;6242052;22;19990;-84
2022/05/17 07:46:28;;;;;;;;;;;;;;;;;;6239239;22;19973;-84
2022/05/17 07:48:54;;;;;;;;;;;;;;;;;;6217049;22;19915;-84
2022/05/17 07:51:20;;;;;;;;;;;;;;;;;;6238326;22;20013;-84
2022/05/17 07:53:46;;;;;;;;;;;;;;;;;;6242548;22;20344;-84
2022/05/17 07:56:13;;;;;;;;;;;;;;;;;;6213978;22;20098;-84
2022/05/17 07:58:38;;;;;;;;;;;;;;;;;;6241114;22;19919;-84
2022/05/17 08:01:04;;;;;;;;;;;;;;;;;;6217040;22;19927;-84
2022/05/17 08:03:30;;;;;;;;;;;;;;;;;;6212787;22;20344;-84
2022/05/17 08:05:58;;;;;;;;;;;;;;;;;;6268708;22;20321;-84
2022/05/17 08:08:24;;;;;;;;;;;;;;;;;;6238434;22;20386;-84
2022/05/17 08:10:50;;;;;;;;;;;;;;;;;;6242110;22;19927;-84
2022/05/17 08:13:16;;;;;;;;;;;;;;;;;;6239345;22;19915;-84
2022/05/17 08:15:42;;;;;;;;;;;;;;;;;;6242112;22;19985;-84
2022/05/17 08:18:08;;;;;;;;;;;;;;;;;;6241644;22;19931;-84
2022/05/17 08:20:34;;;;;;;;;;;;;;;;;;6240196;22;20308;-84
2022/05/17 08:23:00;;;;;;;;;;;;;;;;;;6215483;22;19923;-84
2022/05/17 08:28:11;;;;;;;;;;;;;;;;;;6239069;22;19994;-84
2022/05/17 08:30:37;;;;;;;;;;;;;;;;;;6216966;22;20332;-84
2022/05/17 08:33:15;;;;;;;;;;;;;;;;;;6241420;22;19919;-84
2022/05/17 08:35:42;;;;;;;;;;;;;;;;;;6241219;22;19926;-84
2022/05/17 08:38:08;;;;;;;;;;;;;;;;;;6241629;22;20245;-84
2022/05/17 08:40:34;;;;;;;;;;;;;;;;;;6242472;22;19915;-84
2022/05/17 08:43:00;;;;;;;;;;;;;;;;;;6217619;22;19923;-84
2022/05/17 08:45:26;;;;;;;;;;;;;;;;;;6242095;22;19958;-84
2022/05/17 08:47:52;;;;;;;;;;;;;;;;;;6244002;22;19915;-84
2022/05/17 08:50:18;;;;;;;;;;;;;;;;;;6241147;22;19990;-84
2022/05/17 08:52:44;;;;;;;;;;;;;;;;;;6217989;22;19958;-84
2022/05/17 08:55:10;;;;;;;;;;;;;;;;;;6216319;22;19919;-84
2022/05/17 08:57:36;;;;;;;;;;;;;;;;;;6218410;22;19919;-84
2022/05/17 09:00:02;;;;;;;;;;;;;;;;;;6243749;22;19951;-84
2022/05/17 09:02:28;;;;;;;;;;;;;;;;;;6240597;22;19923;-84
2022/05/17 09:04:54;;;;;;;;;;;;;;;;;;6270921;22;19994;-84
2022/05/17 09:07:20;;;;;;;;;;;;;;;;;;6214590;22;20233;-84
2022/05/17 09:09:46;;;;;;;;;;;;;;;;;;6271161;22;20324;-84
2022/05/17 09:12:12;;;;;;;;;;;;;;;;;;6215913;22;19989;-84
2022/05/17 09:14:38;;;;;;;;;;;;;;;;;;6218619;22;19919;-84
2022/05/17 09:17:04;;;;;;;;;;;;;;;;;;6243041;22;20332;-84
2022/05/17 09:19:30;;;;;;;;;;;;;;;;;;6240967;22;20399;-84
2022/05/17 09:21:59;;;;;;;;;;;;;;;;;;6217962;22;20317;-84
2022/05/17 09:24:25;;;;;;;;;;;;;;;;;;6241668;22;19990;-84
2022/05/17 09:26:51;;;;;;;;;;;;;;;;;;6243974;22;19938;-84
2022/05/17 09:29:18;;;;;;;;;;;;;;;;;;6241172;22;19916;-84
2022/05/17 09:31:44;;;;;;;;;;;;;;;;;;6217839;22;19915;-84
2022/05/17 09:34:10;;;;;;;;;;;;;;;;;;6216991;22;19922;-84
2022/05/17 09:36:36;;;;;;;;;;;;;;;;;;6243397;22;19919;-84
2022/05/17 09:39:01;;;;;;;;;;;;;;;;;;6217825;22;19922;-84
2022/05/17 09:41:27;;;;;;;;;;;;;;;;;;6240432;22;19923;-84
2022/05/17 09:43:53;;;;;;;;;;;;;;;;;;6217942;22;20282;-84
2022/05/17 09:46:19;;;;;;;;;;;;;;;;;;6240762;22;20263;-84
2022/05/17 09:54:15;;;;;;;;;;;;;;;;;;6268256;22;19923;-84
2022/05/17 09:56:41;;;;;;;;;;;;;;;;;;6242532;22;19938;-84
2022/05/17 09:59:07;;;;;;;;;;;;;;;;;;6242863;22;19915;-84
2022/05/17 10:01:37;;;;;;;;;;;;;;;;;;6218110;22;19926;-84
2022/05/17 10:04:03;;;;;;;;;;;;;;;;;;6242888;22;19923;-84
2022/05/17 10:06:29;;;;;;;;;;;;;;;;;;6240182;22;20296;-84
2022/05/17 10:08:55;;;;;;;;;;;;;;;;;;6217986;22;20359;-84
2022/05/17 10:11:21;;;;;;;;;;;;;;;;;;6240238;22;19945;-84
2022/05/17 10:13:48;;;;;;;;;;;;;;;;;;6243718;22;19986;-84
2022/05/17 10:16:14;;;;;;;;;;;;;;;;;;6215532;22;20215;-84
2022/05/17 10:18:40;;;;;;;;;;;;;;;;;;6217242;22;19931;-84
2022/05/17 10:21:06;;;;;;;;;;;;;;;;;;6243013;22;19985;-84
2022/05/17 10:23:32;;;;;;;;;;;;;;;;;;6240328;22;19958;-84
2022/05/17 10:25:58;;;;;;;;;;;;;;;;;;6242589;22;19915;-84
2022/05/17 10:28:24;;;;;;;;;;;;;;;;;;6240072;22;19915;-84
2022/05/17 10:30:50;;;;;;;;;;;;;;;;;;6242764;22;20233;-84
2022/05/17 10:33:16;;;;;;;;;;;;;;;;;;6240161;22;19980;-84
2022/05/17 10:35:42;;;;;;;;;;;;;;;;;;6242565;22;20347;-84
2022/05/17 10:38:10;;;;;;;;;;;;;;;;;;6217356;22;19919;-84
2022/05/17 10:40:40;;;;;;;;;;;;;;;;;;6217595;22;19991;-84
2022/05/17 10:43:05;;;;;;;;;;;;;;;;;;6242908;22;19945;-84
2022/05/17 10:45:36;;;;;;;;;;;;;;;;;;6239591;22;19919;-84
2022/05/17 10:48:02;;;;;;;;;;;;;;;;;;6216263;22;20273;-84
2022/05/17 10:50:28;;;;;;;;;;;;;;;;;;6239101;22;19931;-84
2022/05/17 10:52:54;;;;;;;;;;;;;;;;;;6241920;22;19919;-84
2022/05/17 10:55:20;;;;;;;;;;;;;;;;;;6240641;22;19941;-84
2022/05/17 10:57:46;;;;;;;;;;;;;;;;;;6242500;22;19930;-84
2022/05/17 11:00:18;;;;;;;;;;;;;;;;;;6240182;22;20048;-84
2022/05/17 11:02:44;;;;;;;;;;;;;;;;;;6242118;22;19919;-84
2022/05/17 11:05:12;;;;;;;;;;;;;;;;;;6214532;22;20069;-84
2022/05/17 11:07:38;;;;;;;;;;;;;;;;;;6241740;22;19990;-84
2022/05/17 11:10:04;;;;;;;;;;;;;;;;;;6242729;22;20419;-84
2022/05/17 11:12:30;;;;;;;;;;;;;;;;;;6239416;22;20013;-84
2022/05/17 11:14:57;;;;;;;;;;;;;;;;;;6242304;22;19926;-84
2022/05/17 11:17:23;;;;;;;;;;;;;;;;;;6214788;22;20244;-84
2022/05/17 11:19:49;;;;;;;;;;;;;;;;;;6241435;22;19923;-84
2022/05/17 11:22:15;;;;;;;;;;;;;;;;;;6239733;22;19915;-84
2022/05/17 11:24:40;;;;;;;;;;;;;;;;;;6242769;22;19922;-84
2022/05/17 11:27:08;;;;;;;;;;;;;;;;;;6242818;22;19926;-84
2022/05/17 11:29:34;;;;;;;;;;;;;;;;;;6239997;22;19937;-84
2022/05/17 11:32:00;;;;;;;;;;;;;;;;;;6216674;22;19919;-84
2022/05/17 11:34:29;;;;;;;;;;;;;;;;;;6266551;22;20200;-84
2022/05/17 11:36:55;;;;;;;;;;;;;;;;;;6241810;22;19923;-84
2022/05/17 11:39:20;;;;;;;;;;;;;;;;;;6239544;22;19920;-84
2022/05/17 11:41:46;;;;;;;;;;;;;;;;;;6241420;22;19923;-84
2022/05/17 11:44:12;;;;;;;;;;;;;;;;;;6240057;22;19921;-85
2022/05/17 11:46:38;;;;;;;;;;;;;;;;;;6241570;22;19919;-84
2022/05/17 11:49:04;;;;;;;;;;;;;;;;;;6242560;22;19922;-84
2022/05/17 11:51:31;;;;;;;;;;;;;;;;;;6238944;22;19923;-84
2022/05/17 11:53:57;;;;;;;;;;;;;;;;;;6216424;22;19976;-84
2022/05/17 11:56:22;;;;;;;;;;;;;;;;;;6213940;22;19919;-85
2022/05/17 11:58:48;;;;;;;;;;;;;;;;;;6216626;22;19919;-84
2022/05/17 12:01:14;;;;;;;;;;;;;;;;;;6239496;22;19920;-84
2022/05/17 12:03:40;;;;;;;;;;;;;;;;;;6216017;22;19969;-84
2022/05/17 12:06:07;;;;;;;;;;;;;;;;;;6241757;22;19943;-84
2022/05/17 12:08:35;;;;;;;;;;;;;;;;;;6239166;22;19919;-84
2022/05/17 12:11:00;;;;;;;;;;;;;;;;;;6241105;22;19923;-84
2022/05/17 12:13:26;;;;;;;;;;;;;;;;;;6239008;22;20325;-84
2022/05/17 12:15:52;;;;;;;;;;;;;;;;;;6269657;22;19926;-84
2022/05/17 12:18:18;;;;;;;;;;;;;;;;;;6239216;22;20297;-84
2022/05/17 12:20:44;;;;;;;;;;;;;;;;;;6216287;22;19919;-84
2022/05/17 12:23:11;;;;;;;;;;;;;;;;;;6214071;22;19923;-85
2022/05/17 12:25:37;;;;;;;;;;;;;;;;;;6242037;22;20323;-84
2022/05/17 12:28:03;;;;;;;;;;;;;;;;;;6242221;22;19923;-84
2022/05/17 12:33:14;;;;;;;;;;;;;;;;;;6238475;22;19931;-84
2022/05/17 12:35:41;;;;;;;;;;;;;;;;;;6216318;22;19919;-84
2022/05/17 12:43:02;;;;;;;;;;;;;;;;;;6215760;22;19927;-84
2022/05/17 12:43:38;;;;;;;;;;;;;;;;;;6241433;22;19926;-84
2022/05/17 12:46:04;;;;;;;;;;;;;;;;;;6216878;22;19930;-84
2022/05/17 12:48:30;;;;;;;;;;;;;;;;;;6239419;22;19923;-84
2022/05/17 12:50:55;;;;;;;;;;;;;;;;;;6241671;22;19915;-84
2022/05/17 12:53:21;;;;;;;;;;;;;;;;;;6239207;22;19969;-84
2022/05/17 12:55:47;;;;;;;;;;;;;;;;;;6241139;22;20340;-84
2022/05/17 12:58:13;;;;;;;;;;;;;;;;;;6239351;22;19923;-84
2022/05/17 13:00:39;;;;;;;;;;;;;;;;;;6240317;22;20358;-84
2022/05/17 13:03:05;;;;;;;;;;;;;;;;;;6241339;22;19919;-84
2022/05/17 13:05:31;;;;;;;;;;;;;;;;;;6214210;22;19915;-84
2022/05/17 13:07:57;;;;;;;;;;;;;;;;;;6216408;22;19925;-84
2022/05/17 13:10:23;;;;;;;;;;;;;;;;;;6213205;22;19961;-84
2022/05/17 13:12:49;;;;;;;;;;;;;;;;;;6240639;22;20335;-84
2022/05/17 13:15:15;;;;;;;;;;;;;;;;;;6238996;22;20342;-84
2022/05/17 13:17:43;;;;;;;;;;;;;;;;;;6241528;22;19923;-84
2022/05/17 13:20:10;;;;;;;;;;;;;;;;;;6240813;22;19915;-84
2022/05/17 13:22:36;;;;;;;;;;;;;;;;;;6241362;22;19922;-84
2022/05/17 13:25:02;;;;;;;;;;;;;;;;;;6216091;22;19919;-84
2022/05/17 13:27:28;;;;;;;;;;;;;;;;;;6215548;22;19923;-84
2022/05/17 13:29:54;;;;;;;;;;;;;;;;;;6243394;22;19990;-84
2022/05/17 13:32:19;;;;;;;;;;;;;;;;;;6215310;22;19926;-84
2022/05/17 13:34:45;;;;;;;;;;;;;;;;;;6218208;22;19919;-84
2022/05/17 13:37:12;;;;;;;;;;;;;;;;;;6216194;22;19998;-84
2022/05/17 13:39:38;;;;;;;;;;;;;;;;;;6243537;22;20037;-84
2022/05/17 13:42:04;;;;;;;;;;;;;;;;;;6217673;22;20752;-84
2022/05/17 13:44:30;;;;;;;;;;;;;;;;;;6241365;22;20382;-84
2022/05/17 13:46:56;;;;;;;;;;;;;;;;;;6217542;22;19915;-84
2022/05/17 13:49:22;;;;;;;;;;;;;;;;;;6210752;22;19915;-84
2022/05/17 13:51:48;;;;;;;;;;;;;;;;;;6214530;22;20013;-84
2022/05/17 13:54:14;;;;;;;;;;;;;;;;;;6209214;23;19920;-84
2022/05/17 13:56:40;;;;;;;;;;;;;;;;;;6237836;23;20081;-84
2022/05/17 13:59:06;;;;;;;;;;;;;;;;;;6212886;23;19992;-84
2022/05/17 14:01:32;;;;;;;;;;;;;;;;;;6233288;23;20351;-84
2022/05/17 14:03:58;;;;;;;;;;;;;;;;;;6237598;23;19922;-84
2022/05/17 14:06:24;;;;;;;;;;;;;;;;;;6235945;23;19916;-84
2022/05/17 14:11:50;;;;;;;;;;;;;;;;;;6236201;23;20228;-84
2022/05/17 14:14:16;;;;;;;;;;;;;;;;;;6235277;23;19925;-84
2022/05/17 14:16:42;;;;;;;;;;;;;;;;;;6212461;23;19926;-84
2022/05/17 14:19:09;;;;;;;;;;;;;;;;;;6237453;23;19920;-84
2022/05/17 14:21:37;;;;;;;;;;;;;;;;;;6233187;23;19915;-84
2022/05/17 14:24:03;;;;;;;;;;;;;;;;;;6204258;23;20337;-84
2022/05/17 14:26:29;;;;;;;;;;;;;;;;;;6207118;23;19930;-84
2022/05/17 14:28:55;;;;;;;;;;;;;;;;;;6238019;23;19916;-84
2022/05/17 14:31:21;;;;;;;;;;;;;;;;;;6207990;23;19923;-84
2022/05/17 14:33:47;;;;;;;;;;;;;;;;;;6212405;23;20381;-84
2022/05/17 14:36:13;;;;;;;;;;;;;;;;;;6208522;23;19915;-84
2022/05/17 14:38:39;;;;;;;;;;;;;;;;;;6212402;23;19919;-84
2022/05/17 14:41:05;;;;;;;;;;;;;;;;;;6237706;23;19920;-84
2022/05/17 14:43:31;;;;;;;;;;;;;;;;;;6209039;23;19969;-84
2022/05/17 14:45:57;;;;;;;;;;;;;;;;;;6237297;23;20324;-84
2022/05/17 14:48:23;;;;;;;;;;;;;;;;;;6233387;23;19916;-84
2022/05/17 14:50:49;;;;;;;;;;;;;;;;;;6237385;23;19977;-84
2022/05/17 14:53:15;;;;;;;;;;;;;;;;;;6233597;23;19933;-84
2022/05/17 14:55:41;;;;;;;;;;;;;;;;;;6236583;23;20239;-84
2022/05/17 14:58:07;;;;;;;;;;;;;;;;;;6210240;23;19973;-84
2022/05/17 15:00:33;;;;;;;;;;;;;;;;;;6232438;23;20513;-84
2022/05/17 15:02:59;;;;;;;;;;;;;;;;;;6233819;22;19920;-80
2022/05/17 15:05:25;;;;;;;;;;;;;;;;;;6228393;23;20344;-83
2022/05/17 15:07:51;;;;;;;;;;;;;;;;;;6231748;23;20214;-80
2022/05/17 15:10:17;;;;;;;;;;;;;;;;;;6205379;23;20371;-80
2022/05/17 15:12:43;;;;;;;;;;;;;;;;;;6232746;23;19919;-80
2022/05/17 15:15:09;;;;;;;;;;;;;;;;;;6231272;23;19926;-79
2022/05/17 15:17:36;;;;;;;;;;;;;;;;;;6232428;23;20221;-80
2022/05/17 15:20:08;;;;;;;;;;;;;;;;;;6230667;23;19942;-80
2022/05/17 15:22:35;;;;;;;;;;;;;;;;;;6227764;23;19942;-81
2022/05/17 15:25:01;;;;;;;;;;;;;;;;;;6231290;23;20339;-81
2022/05/17 15:27:27;;;;;;;;;;;;;;;;;;6228060;23;19919;-80
2022/05/17 15:29:54;;;;;;;;;;;;;;;;;;6231682;23;20372;-80
2022/05/17 15:32:20;;;;;;;;;;;;;;;;;;6229345;23;19923;-80
2022/05/17 15:34:47;;;;;;;;;;;;;;;;;;6232609;23;20394;-80
2022/05/17 15:37:17;;;;;;;;;;;;;;;;;;6225886;23;19924;-80
2022/05/17 15:39:45;;;;;;;;;;;;;;;;;;6229543;23;20336;-80
2022/05/17 15:42:12;;;;;;;;;;;;;;;;;;6228462;23;19919;-80
2022/05/17 15:44:38;;;;;;;;;;;;;;;;;;6231702;23;19926;-80
2022/05/17 15:55:22;;;;;;;;;;;;;;;;;;6261207;22;19919;-80
2022/05/17 15:57:51;;;;;;;;;;;;;;;;;;6262633;22;19924;-80
2022/05/17 16:00:18;;;;;;;;;;;;;;;;;;6259791;22;19926;-80
2022/05/17 16:02:44;;;;;;;;;;;;;;;;;;6236465;22;20280;-80
2022/05/17 16:05:10;;;;;;;;;;;;;;;;;;6235024;22;19958;-80
2022/05/17 16:10:22;;;;;;;;;;;;;;;;;;6260998;22;19923;-83
2022/05/17 16:12:49;;;;;;;;;;;;;;;;;;6255516;22;19941;-81
2022/05/17 16:15:15;;;;;;;;;;;;;;;;;;6206776;22;19925;-81
2022/05/17 16:17:43;;;;;;;;;;;;;;;;;;6264037;22;19919;-80
2022/05/17 16:20:11;;;;;;;;;;;;;;;;;;6263589;22;20338;-81
2022/05/17 16:22:44;;;;;;;;;;;;;;;;;;6235761;22;19919;-81
2022/05/17 16:25:12;;;;;;;;;;;;;;;;;;6208531;22;19923;-81
2022/05/17 16:27:38;;;;;;;;;;;;;;;;;;6258796;22;19968;-83
2022/05/17 16:30:04;;;;;;;;;;;;;;;;;;6208680;22;19919;-83
2022/05/17 16:32:30;;;;;;;;;;;;;;;;;;6256883;22;20002;-82
2022/05/17 16:34:56;;;;;;;;;;;;;;;;;;6235660;22;19926;-82
2022/05/17 16:37:22;;;;;;;;;;;;;;;;;;6253481;22;19919;-82
2022/05/17 16:39:48;;;;;;;;;;;;;;;;;;6234035;22;19919;-82
2022/05/17 16:42:14;;;;;;;;;;;;;;;;;;6254193;22;19923;-82
2022/05/17 16:44:40;;;;;;;;;;;;;;;;;;6208837;22;19975;-80
2022/05/17 16:47:08;;;;;;;;;;;;;;;;;;6260768;22;19972;-81
2022/05/17 16:49:34;;;;;;;;;;;;;;;;;;6259948;22;19919;-80
2022/05/17 16:52:00;;;;;;;;;;;;;;;;;;6257287;22;19923;-81
2022/05/17 16:54:27;;;;;;;;;;;;;;;;;;6254495;22;19923;-81
2022/05/17 16:56:54;;;;;;;;;;;;;;;;;;6260236;22;19958;-81
2022/05/17 16:59:20;;;;;;;;;;;;;;;;;;6258982;22;19965;-81
2022/05/17 17:01:46;;;;;;;;;;;;;;;;;;6263899;22;19923;-81
2022/05/17 17:04:12;;;;;;;;;;;;;;;;;;6259052;22;19926;-81
2022/05/17 17:06:39;;;;;;;;;;;;;;;;;;6261558;22;19919;-81
2022/05/17 17:09:05;;;;;;;;;;;;;;;;;;6260798;22;20346;-81
2022/05/17 17:11:31;;;;;;;;;;;;;;;;;;6233433;22;19925;-81
2022/05/17 17:13:57;;;;;;;;;;;;;;;;;;6263802;22;19919;-81
2022/05/17 17:16:24;;;;;;;;;;;;;;;;;;6263521;22;20325;-81
2022/05/17 17:18:50;;;;;;;;;;;;;;;;;;6265469;22;20017;-81
2022/05/17 17:21:15;;;;;;;;;;;;;;;;;;6260581;22;19965;-81
2022/05/17 17:23:41;;;;;;;;;;;;;;;;;;6261907;22;20483;-80
2022/05/17 17:26:07;;;;;;;;;;;;;;;;;;6265534;22;20486;-81
2022/05/17 17:28:33;;;;;;;;;;;;;;;;;;6262247;22;19922;-81
2022/05/17 17:30:59;;;;;;;;;;;;;;;;;;6263938;22;19927;-81
2022/05/17 17:38:55;;;;;;;;;;;;;;;;;;6233724;22;19958;-80
2022/05/17 17:41:21;;;;;;;;;;;;;;;;;;6229911;22;19924;-80
2022/05/17 17:43:47;;;;;;;;;;;;;;;;;;6231731;22;19966;-81
2022/05/17 17:46:13;;;;;;;;;;;;;;;;;;6206330;22;19969;-80
2022/05/17 17:48:39;;;;;;;;;;;;;;;;;;6236221;22;19919;-80
2022/05/17 17:51:07;;;;;;;;;;;;;;;;;;6237527;22;20708;-80
2022/05/17 17:53:34;;;;;;;;;;;;;;;;;;6234359;22;19961;-80
2022/05/17 17:56:00;;;;;;;;;;;;;;;;;;6233275;22;19949;-80
2022/05/17 17:58:26;;;;;;;;;;;;;;;;;;6232188;22;19965;-80
2022/05/17 18:00:52;;;;;;;;;;;;;;;;;;6233175;22;19919;-80
2022/05/17 18:03:18;;;;;;;;;;;;;;;;;;6227711;22;20349;-80
2022/05/17 18:05:44;;;;;;;;;;;;;;;;;;6207949;22;19915;-80
2022/05/17 18:08:10;;;;;;;;;;;;;;;;;;6231696;22;19927;-80
2022/05/17 18:10:36;;;;;;;;;;;;;;;;;;6233045;22;19919;-80
2022/05/17 18:13:02;;;;;;;;;;;;;;;;;;6232675;22;19925;-80
2022/05/17 18:15:28;;;;;;;;;;;;;;;;;;6231831;22;19931;-80
2022/05/17 18:17:53;;;;;;;;;;;;;;;;;;6206610;22;19929;-79
2022/05/17 18:20:19;;;;;;;;;;;;;;;;;;6230978;22;19926;-80
2022/05/17 18:22:45;;;;;;;;;;;;;;;;;;6232760;22;19920;-80
2022/05/17 18:25:13;;;;;;;;;;;;;;;;;;6204777;22;19965;-80
2022/05/17 18:27:40;;;;;;;;;;;;;;;;;;6207588;22;19919;-80
2022/05/17 18:30:06;;;;;;;;;;;;;;;;;;6233434;22;19965;-80
2022/05/17 18:32:32;;;;;;;;;;;;;;;;;;6232794;22;20339;-80
2022/05/17 18:34:58;;;;;;;;;;;;;;;;;;6208270;22;19926;-80
2022/05/17 18:37:24;;;;;;;;;;;;;;;;;;6232206;22;19919;-80
2022/05/17 18:39:50;;;;;;;;;;;;;;;;;;6232523;22;19919;-80
2022/05/17 18:42:16;;;;;;;;;;;;;;;;;;6229336;22;19986;-80
2022/05/17 18:44:42;;;;;;;;;;;;;;;;;;6209439;22;19959;-80
2022/05/17 18:47:12;;;;;;;;;;;;;;;;;;6232377;22;20247;-80
2022/05/17 18:49:37;;;;;;;;;;;;;;;;;;6230081;22;19919;-80
2022/05/17 18:52:04;;;;;;;;;;;;;;;;;;6211084;22;19994;-80
2022/05/17 18:54:30;;;;;;;;;;;;;;;;;;6210910;22;19927;-80
2022/05/17 18:57:01;;;;;;;;;;;;;;;;;;6210519;22;19976;-81
2022/05/17 18:59:30;;;;;;;;;;;;;;;;;;6208767;22;20189;-80
2022/05/17 19:01:56;;;;;;;;;;;;;;;;;;6213338;22;19919;-80
2022/05/17 19:04:23;;;;;;;;;;;;;;;;;;6234055;22;19915;-80
2022/05/17 19:06:49;;;;;;;;;;;;;;;;;;6235797;22;19990;-80
2022/05/17 19:14:53;;;;;;;;;;;;;;;;;;6186421;22;19916;-80
2022/05/17 19:17:19;;;;;;;;;;;;;;;;;;6232945;22;19919;-80
2022/05/17 19:19:45;;;;;;;;;;;;;;;;;;6235969;22;19938;-80
2022/05/17 19:22:11;;;;;;;;;;;;;;;;;;6231963;22;19955;-80
2022/05/17 19:24:37;;;;;;;;;;;;;;;;;;6235824;22;19919;-80
2022/05/17 19:27:03;;;;;;;;;;;;;;;;;;6232276;22;19926;-80
2022/05/17 19:29:29;;;;;;;;;;;;;;;;;;6208101;22;19968;-80
2022/05/17 19:31:54;;;;;;;;;;;;;;;;;;6234036;22;19990;-80
2022/05/17 19:34:20;;;;;;;;;;;;;;;;;;6207203;22;19953;-80
2022/05/17 19:39:31;;;;;;;;;;;;;;;;;;6260045;22;19930;-80
2022/05/17 19:41:57;;;;;;;;;;;;;;;;;;6209843;22;19916;-80
2022/05/17 19:44:23;;;;;;;;;;;;;;;;;;6206828;22;19923;-80
2022/05/17 19:46:49;;;;;;;;;;;;;;;;;;6234946;22;19990;-85